CSAV Rio Maipo — A8GH5 — position and weather

sailwx.info

Track history (hours):
 
Tides and Currents Weather Stations Pressure Air Temp Water Temp Dewpoint Dewpoint Depression Visibility Wind Speed Wind Dir Waves Ship Positions

CSAV Rio Maipo

Last reported at 2015-Aug-31 06:19 UTC. Time now 2015-Sep-02 12:51 UTC.
Position N 01°15' E 104°03'.

Length 210.9 m; beam 32.3 m; draft 12 m.

Type: Ship (hazmat cat A). MMSI: 636091292.

Date/timePositionNaut miles runAvg speedWind from/ knotsBaromVisibWave heightAir tempDewpointWater temp
2015-Aug-31 06:19N 01°15' E 104°03'1418.2
2015-Aug-31 05:33N 01°12' E 103°50'5 5.3
2015-Aug-31 04:33N 01°16' E 103°47'0 0.0
2015-Aug-31 03:27N 01°16' E 103°47'0 0.0
2015-Aug-31 02:30N 01°16' E 103°47'0 0.0
2015-Aug-31 01:30N 01°16' E 103°47'0 0.0
2015-Aug-31 00:30N 01°16' E 103°47'0 0.0
2015-Aug-30 23:30N 01°16' E 103°47'0 0.0
2015-Aug-30 22:30N 01°16' E 103°47'0 0.0
2015-Aug-30 21:27N 01°16' E 103°47'0 0.0
2015-Aug-30 20:33N 01°16' E 103°47'0 0.0
2015-Aug-30 19:30N 01°16' E 103°47'0 0.0
2015-Aug-30 18:24N 01°16' E 103°47'0 0.0
2015-Aug-30 17:33N 01°16' E 103°47'0 0.0
2015-Aug-30 16:30N 01°16' E 103°47'0 0.0
2015-Aug-30 15:30N 01°16' E 103°47'0 0.0
2015-Aug-30 14:30N 01°16' E 103°47'1 0.6
2015-Aug-30 13:33N 01°16' E 103°47'8 7.6
2015-Aug-30 12:34N 01°13' E 103°54'10 9.7
2015-Aug-30 11:33N 01°16' E 104°03'  
2015-Aug-26 23:34N 22°19' E 114°07'1 0.6
2015-Aug-26 21:03N 22°20' E 114°08'0 0.0
2015-Aug-26 20:15N 22°20' E 114°08'0 0.0
2015-Aug-26 17:30N 22°20' E 114°08'0 0.0
2015-Aug-26 15:33N 22°20' E 114°08'0 0.0
2015-Aug-26 12:14N 22°20' E 114°08'3 3.9
2015-Aug-26 11:33N 22°18' E 114°06'1212.2
2015-Aug-26 10:32N 22°09' E 114°15'1515.4
2015-Aug-26 09:32N 22°11' E 114°31'28315.6
2015-Aug-25 15:21N 24°23' E 119°04'  
Track history (hours):
 
Tides and Currents Weather Stations Pressure Air Temp Water Temp Dewpoint Dewpoint Depression Visibility Wind Speed Wind Dir Waves Ship Positions

CSAV Rio Maipo

Last reported at 2015-Aug-31 06:19 UTC. Time now 2015-Sep-02 12:51 UTC.
Position N 01°15' E 104°03'.

Length 210.9 m; beam 32.3 m; draft 12 m.

Type: Ship (hazmat cat A). MMSI: 636091292.

Date/timePositionNaut miles runAvg speedWind from/ knotsBaromVisibWave heightAir tempDewpointWater temp
2015-Aug-31 06:19N 01°15' E 104°03'1418.2
2015-Aug-31 05:33N 01°12' E 103°50'5 5.3
2015-Aug-31 04:33N 01°16' E 103°47'0 0.0
2015-Aug-31 03:27N 01°16' E 103°47'0 0.0
2015-Aug-31 02:30N 01°16' E 103°47'0 0.0
2015-Aug-31 01:30N 01°16' E 103°47'0 0.0
2015-Aug-31 00:30N 01°16' E 103°47'0 0.0
2015-Aug-30 23:30N 01°16' E 103°47'0 0.0
2015-Aug-30 22:30N 01°16' E 103°47'0 0.0
2015-Aug-30 21:27N 01°16' E 103°47'0 0.0
2015-Aug-30 20:33N 01°16' E 103°47'0 0.0
2015-Aug-30 19:30N 01°16' E 103°47'0 0.0
2015-Aug-30 18:24N 01°16' E 103°47'0 0.0
2015-Aug-30 17:33N 01°16' E 103°47'0 0.0
2015-Aug-30 16:30N 01°16' E 103°47'0 0.0
2015-Aug-30 15:30N 01°16' E 103°47'0 0.0
2015-Aug-30 14:30N 01°16' E 103°47'1 0.6
2015-Aug-30 13:33N 01°16' E 103°47'8 7.6
2015-Aug-30 12:34N 01°13' E 103°54'10 9.7
2015-Aug-30 11:33N 01°16' E 104°03'  
2015-Aug-26 23:34N 22°19' E 114°07'1 0.6
2015-Aug-26 21:03N 22°20' E 114°08'0 0.0
2015-Aug-26 20:15N 22°20' E 114°08'0 0.0
2015-Aug-26 17:30N 22°20' E 114°08'0 0.0
2015-Aug-26 15:33N 22°20' E 114°08'0 0.0
2015-Aug-26 12:14N 22°20' E 114°08'3 3.9
2015-Aug-26 11:33N 22°18' E 114°06'1212.2
2015-Aug-26 10:32N 22°09' E 114°15'1515.4
2015-Aug-26 09:32N 22°11' E 114°31'28315.6
2015-Aug-25 15:21N 24°23' E 119°04'  

Dump ship's entire track history